Time;durP1;ratioP1;P1;durP2;ratioP2;P2;SDS_P1;SDS_P2;PMS_P1;PMS_P2;Temp;Humidity;BMP_temperature;BMP_pressure;BME280_temperature;BME280_humidity;BME280_pressure;Samples;Min_cycle;Max_cycle;Signal;HPM_P1;HPM_P2
2023/03/20 00:02:05;;;;;;;11.55;8.13;;;8.70;57.20;;;;;;5095293;28;20533;-74
2023/03/20 00:04:31;;;;;;;10.10;7.78;;;8.70;57.20;;;;;;5095230;28;20059;-73
2023/03/20 00:06:57;;;;;;;10.10;7.15;;;8.70;57.30;;;;;;5095423;28;20472;-73
2023/03/20 00:09:24;;;;;;;9.88;7.70;;;8.70;57.20;;;;;;5076908;28;20024;-73
2023/03/20 00:11:52;;;;;;;10.70;6.93;;;8.70;57.30;;;;;;5095233;28;20056;-74
2023/03/20 00:14:21;;;;;;;9.60;6.90;;;8.70;57.30;;;;;;5095052;28;20521;-74
2023/03/20 00:16:48;;;;;;;8.95;6.53;;;8.70;57.40;;;;;;5095542;28;20107;-73
2023/03/20 00:19:19;;;;;;;8.50;6.50;;;8.70;57.40;;;;;;5095229;28;20024;-73
2023/03/20 00:21:46;;;;;;;8.90;6.55;;;8.70;57.40;;;;;;5095081;28;20024;-73
2023/03/20 00:24:13;;;;;;;9.43;6.38;;;8.70;57.40;;;;;;5094863;28;20035;-73
2023/03/20 00:26:39;;;;;;;8.55;6.35;;;8.60;57.50;;;;;;5094266;28;20065;-73
2023/03/20 00:29:06;;;;;;;7.95;5.95;;;8.60;57.50;;;;;;5094962;28;20496;-73
2023/03/20 00:31:34;;;;;;;8.55;6.35;;;8.60;57.50;;;;;;5076801;28;20028;-72
2023/03/20 00:34:02;;;;;;;9.45;6.55;;;8.60;57.50;;;;;;5076466;28;20126;-73
2023/03/20 00:36:29;;;;;;;8.05;6.47;;;8.60;57.50;;;;;;5094728;28;20077;-74
2023/03/20 00:38:58;;;;;;;7.18;5.88;;;8.60;57.50;;;;;;5076343;28;20069;-73
2023/03/20 00:41:38;;;;;;;8.45;6.28;;;8.60;57.60;;;;;;5094612;28;20170;-73
2023/03/20 00:44:25;;;;;;;7.20;5.90;;;8.60;57.60;;;;;;5094780;28;20028;-74
2023/03/20 00:46:57;;;;;;;8.05;5.82;;;8.60;57.60;;;;;;5093653;28;20557;-74
2023/03/20 00:49:26;;;;;;;7.55;5.95;;;8.50;57.60;;;;;;5076218;28;20028;-73
2023/03/20 00:51:53;;;;;;;8.63;6.30;;;8.50;57.60;;;;;;5095131;28;20036;-73
2023/03/20 00:54:19;;;;;;;7.95;5.85;;;8.50;57.70;;;;;;5094422;28;20107;-74
2023/03/20 00:57:13;;;;;;;8.52;5.70;;;8.50;57.70;;;;;;5094641;28;20055;-74
2023/03/20 01:00:07;;;;;;;7.10;5.60;;;8.50;57.70;;;;;;5094262;28;20370;-74
2023/03/20 01:02:33;;;;;;;8.65;6.28;;;8.50;57.70;;;;;;5076511;28;20039;-74
2023/03/20 01:05:00;;;;;;;8.13;6.10;;;8.40;57.70;;;;;;5094352;28;20028;-74
2023/03/20 01:07:26;;;;;;;7.30;5.25;;;8.40;57.70;;;;;;5076054;28;20039;-74
2023/03/20 01:09:52;;;;;;;7.95;5.93;;;8.40;57.80;;;;;;5076229;28;20469;-74
2023/03/20 01:12:18;;;;;;;7.50;5.60;;;8.40;57.80;;;;;;5094071;28;20039;-74
2023/03/20 01:14:48;;;;;;;7.15;5.80;;;8.40;57.90;;;;;;5076214;28;20474;-74
2023/03/20 01:17:20;;;;;;;8.70;6.13;;;8.40;57.90;;;;;;5076424;28;20028;-74
2023/03/20 01:19:46;;;;;;;7.97;5.80;;;8.40;57.90;;;;;;5093908;28;20042;-74
2023/03/20 01:22:16;;;;;;;8.63;6.22;;;8.40;57.90;;;;;;5075902;28;20488;-74
2023/03/20 01:24:42;;;;;;;8.38;6.18;;;8.30;58.00;;;;;;5094251;28;20024;-74
2023/03/20 01:27:17;;;;;;;8.30;6.10;;;8.40;58.10;;;;;;5093649;28;20055;-74
2023/03/20 01:29:43;;;;;;;7.85;6.25;;;8.30;58.00;;;;;;5094176;28;20024;-73
2023/03/20 01:32:17;;;;;;;9.45;5.85;;;8.30;58.10;;;;;;5075496;28;20032;-74
2023/03/20 01:34:43;;;;;;;8.90;6.40;;;8.30;58.10;;;;;;5094008;28;20060;-74
2023/03/20 01:37:13;;;;;;;8.95;6.63;;;8.30;58.10;;;;;;5075806;28;20047;-74
2023/03/20 01:39:39;;;;;;;6.95;5.70;;;8.30;58.20;;;;;;5093824;28;20032;-74
2023/03/20 01:42:06;;;;;;;8.77;6.05;;;8.30;58.20;;;;;;5094165;28;20086;-73
2023/03/20 01:44:34;;;;;;;9.88;7.03;;;8.30;58.20;;;;;;5093706;28;20041;-74
2023/03/20 01:47:02;;;;;;;8.35;6.68;;;8.30;58.20;;;;;;5075582;28;20028;-73
2023/03/20 01:49:27;;;;;;;8.95;6.50;;;8.30;58.30;;;;;;5093780;28;20038;-72
2023/03/20 01:51:55;;;;;;;9.63;6.47;;;8.30;58.30;;;;;;5093510;28;20020;-73
2023/03/20 01:54:28;;;;;;;7.47;6.22;;;8.30;58.30;;;;;;5093715;28;20020;-73
2023/03/20 01:57:13;;;;;;;8.75;6.35;;;8.20;58.30;;;;;;5093532;28;20035;-72
2023/03/20 02:00:09;;;;;;;9.32;6.25;;;8.20;58.30;;;;;;5097591;28;20030;-72
2023/03/20 02:02:35;;;;;;;;;;;8.20;58.40;;;;;;5098081;28;20024;-72
2023/03/20 02:05:08;;;;;;;11.32;6.60;;;8.20;58.70;;;;;;5079447;28;19908;-73
2023/03/20 02:07:34;;;;;;;8.10;6.20;;;8.20;58.30;;;;;;5079595;28;20043;-72
2023/03/20 02:10:07;;;;;;;8.48;6.85;;;8.20;58.30;;;;;;5097677;28;20104;-72
2023/03/20 02:12:33;;;;;;;9.32;6.72;;;8.20;58.40;;;;;;5079109;28;20024;-72
2023/03/20 02:14:59;;;;;;;9.43;6.50;;;8.20;58.50;;;;;;5097475;28;20115;-74
2023/03/20 02:17:25;;;;;;;10.52;7.57;;;8.20;58.60;;;;;;5097499;28;20028;-73
2023/03/20 02:20:16;;;;;;;9.95;7.55;;;8.20;58.60;;;;;;5097470;28;20030;-73
2023/03/20 02:23:06;;;;;;;11.35;7.45;;;8.10;58.60;;;;;;5097389;28;20055;-73
2023/03/20 02:25:44;;;;;;;9.40;7.15;;;8.10;59.30;;;;;;5096938;28;20764;-73
2023/03/20 02:28:12;;;;;;;10.38;7.40;;;8.10;58.70;;;;;;5097403;28;20128;-74
2023/03/20 02:31:04;;;;;;;14.35;8.95;;;8.10;58.80;;;;;;5096946;28;20024;-75
2023/03/20 02:33:55;;;;;;;13.20;9.52;;;8.10;58.80;;;;;;5092106;28;20036;-74
2023/03/20 02:37:03;;;;;;;13.55;10.23;;;8.10;59.00;;;;;;5096941;28;20561;-73
2023/03/20 02:39:56;;;;;;;13.10;9.20;;;8.10;59.00;;;;;;5096840;28;20066;-73
2023/03/20 02:42:37;;;;;;;11.32;8.55;;;8.10;59.00;;;;;;5079057;28;20019;-74
2023/03/20 02:45:25;;;;;;;14.45;10.55;;;8.00;59.00;;;;;;5096762;28;20032;-72
2023/03/20 02:47:59;;;;;;;17.08;12.98;;;8.00;59.00;;;;;;5096929;28;20454;-73
2023/03/20 02:50:25;;;;;;;20.50;14.13;;;8.00;59.10;;;;;;5078571;28;20411;-73
2023/03/20 02:53:05;;;;;;;18.38;12.88;;;8.00;59.20;;;;;;5096483;28;20025;-73
2023/03/20 02:55:33;;;;;;;18.08;13.07;;;8.00;59.20;;;;;;5078867;28;20028;-73
2023/03/20 02:58:31;;;;;;;14.55;11.80;;;8.00;59.20;;;;;;5096490;28;20031;-72
2023/03/20 03:01:07;;;;;;;15.80;12.27;;;8.00;59.20;;;;;;5096285;28;20110;-71
2023/03/20 03:03:48;;;;;;;15.93;11.68;;;8.00;59.20;;;;;;5096534;28;20073;-71
2023/03/20 03:06:28;;;;;;;16.77;11.82;;;8.00;59.30;;;;;;5096381;28;20469;-72
2023/03/20 03:09:01;;;;;;;14.25;10.43;;;7.90;59.30;;;;;;5095815;28;20024;-72
2023/03/20 03:11:27;;;;;;;13.30;10.05;;;7.90;59.30;;;;;;5096706;28;20086;-72
2023/03/20 03:13:55;;;;;;;12.98;10.15;;;7.90;59.30;;;;;;5096123;28;20386;-72
2023/03/20 03:16:35;;;;;;;11.70;8.80;;;7.90;59.30;;;;;;5078085;28;20374;-73
2023/03/20 03:19:10;;;;;;;12.60;8.98;;;7.90;59.90;;;;;;5078221;28;20034;-73
2023/03/20 03:21:39;;;;;;;11.88;9.13;;;7.90;59.40;;;;;;5096157;28;20111;-74
2023/03/20 03:24:05;;;;;;;10.35;8.52;;;7.80;59.30;;;;;;5095841;28;20036;-74
2023/03/20 03:26:35;;;;;;;11.35;9.13;;;7.80;59.30;;;;;;5078304;28;20384;-75
2023/03/20 03:29:08;;;;;;;11.88;9.40;;;7.80;59.30;;;;;;5096169;28;20082;-74
2023/03/20 03:31:36;;;;;;;12.65;9.50;;;7.80;59.30;;;;;;5095999;28;20028;-74
2023/03/20 03:34:02;;;;;;;11.88;8.82;;;7.70;59.40;;;;;;5077461;28;20047;-74
2023/03/20 03:36:50;;;;;;;11.68;8.68;;;7.80;59.40;;;;;;5096312;28;20028;-74
2023/03/20 03:39:35;;;;;;;12.02;9.07;;;7.70;59.40;;;;;;5077712;28;20024;-74
2023/03/20 03:42:24;;;;;;;12.77;8.98;;;7.70;59.50;;;;;;5095764;28;20458;-74
2023/03/20 03:45:16;;;;;;;11.85;9.00;;;7.70;59.40;;;;;;5095204;28;20036;-74
2023/03/20 03:48:03;;;;;;;10.27;7.90;;;7.70;59.60;;;;;;5084561;28;20130;-75
2023/03/20 03:50:32;;;;;;;11.90;9.25;;;7.70;59.60;;;;;;5077286;28;20089;-74
2023/03/20 03:53:05;;;;;;;10.65;8.18;;;7.70;59.60;;;;;;5077305;28;20024;-74
2023/03/20 03:55:37;;;;;;;12.48;8.20;;;7.70;59.60;;;;;;5077841;28;20454;-73
2023/03/20 03:58:08;;;;;;;12.40;8.32;;;7.70;59.70;;;;;;5095447;28;20513;-74
2023/03/20 04:00:35;;;;;;;10.90;8.35;;;7.60;59.70;;;;;;5095708;28;20105;-72
2023/03/20 04:03:04;;;;;;;12.77;8.68;;;7.60;59.70;;;;;;5077345;28;20027;-73
2023/03/20 04:05:31;;;;;;;11.73;8.40;;;7.60;59.70;;;;;;5076998;28;20032;-74
2023/03/20 04:07:59;;;;;;;12.40;8.52;;;7.60;59.80;;;;;;5105047;28;20035;-75
2023/03/20 04:10:25;;;;;;;10.30;7.88;;;7.60;59.90;;;;;;5097684;28;20140;-74
2023/03/20 04:12:51;;;;;;;10.55;7.88;;;7.60;59.90;;;;;;5115729;28;20027;-75
2023/03/20 04:15:19;;;;;;;11.05;8.52;;;7.60;60.00;;;;;;5115178;28;20028;-74
2023/03/20 04:17:44;;;;;;;10.52;8.18;;;7.60;60.00;;;;;;5115312;28;20038;-74
2023/03/20 04:20:11;;;;;;;9.18;7.25;;;7.60;60.00;;;;;;5114230;28;20023;-73
2023/03/20 04:22:37;;;;;;;10.93;7.93;;;7.60;60.00;;;;;;5092713;28;20031;-76
2023/03/20 04:25:08;;;;;;;9.98;7.45;;;7.60;60.00;;;;;;5114097;28;20355;-76
2023/03/20 04:27:34;;;;;;;10.30;7.75;;;7.60;60.00;;;;;;5095906;28;20584;-77
2023/03/20 04:30:00;;;;;;;10.10;7.65;;;7.60;60.00;;;;;;5114340;28;20046;-75
2023/03/20 04:32:26;;;;;;;11.07;8.00;;;7.60;60.00;;;;;;5094960;28;20082;-74
2023/03/20 04:34:51;;;;;;;10.20;7.85;;;7.60;60.10;;;;;;5083244;28;20506;-75
2023/03/20 04:37:18;;;;;;;11.85;8.80;;;7.60;60.10;;;;;;5074088;28;20127;-75
2023/03/20 04:39:43;;;;;;;10.27;7.72;;;7.70;60.10;;;;;;5074811;28;20047;-74
2023/03/20 04:42:10;;;;;;;11.88;9.32;;;7.70;60.10;;;;;;5074046;28;20445;-74
2023/03/20 04:44:36;;;;;;;11.13;8.30;;;7.70;60.10;;;;;;5073944;28;20024;-74
2023/03/20 04:47:01;;;;;;;12.77;8.30;;;7.70;60.10;;;;;;5073907;28;20040;-74
2023/03/20 04:49:27;;;;;;;12.38;8.88;;;7.70;60.20;;;;;;5074668;28;20025;-74
2023/03/20 04:51:54;;;;;;;12.13;8.50;;;7.70;60.20;;;;;;5055958;28;20124;-74
2023/03/20 04:54:20;;;;;;;11.20;8.40;;;7.80;60.30;;;;;;5074283;28;20085;-75
2023/03/20 04:56:46;;;;;;;10.90;7.63;;;7.80;60.40;;;;;;5074021;28;20115;-74
2023/03/20 04:59:12;;;;;;;11.77;7.85;;;7.80;60.40;;;;;;5091661;28;20518;-74
2023/03/20 05:01:37;;;;;;;10.30;7.20;;;7.80;60.40;;;;;;5062660;28;20028;-75
2023/03/20 05:04:03;;;;;;;13.52;7.47;;;7.80;60.50;;;;;;5079106;28;20155;-74
2023/03/20 05:06:32;;;;;;;9.70;7.55;;;7.90;60.60;;;;;;5074363;28;20056;-74
2023/03/20 05:08:59;;;;;;;10.25;7.45;;;7.90;60.60;;;;;;5073682;28;20032;-74
2023/03/20 05:11:26;;;;;;;9.07;6.95;;;8.00;60.70;;;;;;5073682;28;20024;-74
2023/03/20 05:13:52;;;;;;;10.65;7.38;;;8.00;60.80;;;;;;5073901;28;20463;-74
2023/03/20 05:16:17;;;;;;;10.60;7.57;;;8.00;60.80;;;;;;5073735;28;20035;-74
2023/03/20 05:18:43;;;;;;;10.20;7.00;;;8.10;60.90;;;;;;5074259;28;20082;-74
2023/03/20 05:21:09;;;;;;;10.35;7.60;;;8.10;60.90;;;;;;5073787;28;20504;-74
2023/03/20 05:23:35;;;;;;;10.63;7.75;;;8.10;61.00;;;;;;5073416;28;20064;-74
2023/03/20 05:26:01;;;;;;;10.90;7.38;;;8.20;61.10;;;;;;5073668;28;20035;-74
2023/03/20 05:28:27;;;;;;;10.23;6.85;;;8.20;61.10;;;;;;5073575;28;20037;-73
2023/03/20 05:30:52;;;;;;;9.45;6.88;;;8.20;61.10;;;;;;5073298;28;20463;-74
2023/03/20 05:33:18;;;;;;;8.98;6.47;;;8.30;61.20;;;;;;5073413;28;20029;-74
2023/03/20 05:35:44;;;;;;;10.00;7.60;;;8.30;61.20;;;;;;5073907;28;20065;-75
2023/03/20 05:38:10;;;;;;;9.35;7.10;;;8.40;61.20;;;;;;5073421;28;20028;-75
2023/03/20 05:40:36;;;;;;;8.68;6.70;;;8.40;61.20;;;;;;5073459;28;20117;-75
2023/03/20 05:43:02;;;;;;;8.40;6.60;;;8.50;61.30;;;;;;5073481;28;20103;-75
2023/03/20 05:45:28;;;;;;;9.88;6.80;;;8.50;61.20;;;;;;5073089;28;20025;-74
2023/03/20 05:47:54;;;;;;;8.18;6.30;;;8.60;61.30;;;;;;5073553;28;20482;-75
2023/03/20 05:50:19;;;;;;;8.52;6.50;;;8.60;61.20;;;;;;5073209;28;20032;-74
2023/03/20 05:52:49;;;;;;;10.05;6.75;;;8.70;61.20;;;;;;5055740;28;20036;-75
2023/03/20 05:55:14;;;;;;;11.82;7.38;;;8.70;61.10;;;;;;5055070;28;20047;-73
2023/03/20 05:57:40;;;;;;;11.00;7.32;;;8.80;61.10;;;;;;5073173;28;20433;-73
2023/03/20 06:00:09;;;;;;;12.63;8.45;;;8.80;61.10;;;;;;5073031;28;20489;-76
2023/03/20 06:02:35;;;;;;;9.48;7.00;;;8.90;61.10;;;;;;5055323;28;20040;-73
2023/03/20 06:05:01;;;;;;;9.05;6.82;;;9.00;61.30;;;;;;5073191;28;20363;-73
2023/03/20 06:07:26;;;;;;;11.30;6.72;;;9.00;61.20;;;;;;5055545;28;20111;-73
2023/03/20 06:09:52;;;;;;;8.30;6.30;;;9.10;61.30;;;;;;5073367;28;20450;-75
2023/03/20 06:12:17;;;;;;;9.88;6.68;;;9.10;61.20;;;;;;5073052;28;20028;-73
2023/03/20 06:14:43;;;;;;;9.45;6.50;;;9.20;61.10;;;;;;5072898;28;20071;-73
2023/03/20 06:17:09;;;;;;;9.27;6.50;;;9.30;61.10;;;;;;5073709;28;20025;-72
2023/03/20 06:19:37;;;;;;;8.63;6.53;;;9.40;61.00;;;;;;5073084;28;20107;-72
2023/03/20 06:22:03;;;;;;;9.80;7.05;;;9.50;60.90;;;;;;5054617;28;20522;-75
2023/03/20 06:24:29;;;;;;;8.50;6.20;;;9.60;60.80;;;;;;5072962;28;20124;-74
2023/03/20 06:26:55;;;;;;;9.20;6.35;;;9.70;60.70;;;;;;5073065;28;20025;-74
2023/03/20 06:29:21;;;;;;;10.30;7.75;;;9.70;60.50;;;;;;5073270;28;20516;-74
2023/03/20 06:31:47;;;;;;;10.35;6.82;;;9.80;60.40;;;;;;5072929;28;20031;-73
2023/03/20 06:34:12;;;;;;;8.77;6.50;;;9.90;60.40;;;;;;5057469;28;20048;-73
2023/03/20 06:36:38;;;;;;;8.40;6.18;;;9.90;60.20;;;;;;5072827;28;20482;-73
2023/03/20 06:39:04;;;;;;;9.75;6.60;;;10.00;60.20;;;;;;5074134;28;20206;-78
2023/03/20 06:41:29;;;;;;;9.30;6.78;;;10.10;60.10;;;;;;5087516;28;20478;-76
2023/03/20 06:43:55;;;;;;;10.32;6.72;;;10.10;60.10;;;;;;5094424;28;20074;-76
2023/03/20 06:46:21;;;;;;;10.73;7.28;;;10.20;60.00;;;;;;5096891;28;20077;-83
2023/03/20 06:48:47;;;;;;;10.52;6.63;;;10.20;59.90;;;;;;5097027;28;20035;-84
2023/03/20 06:51:13;;;;;;;8.55;6.68;;;10.20;59.80;;;;;;5097393;28;20455;-80
2023/03/20 06:53:40;;;;;;;9.63;7.18;;;10.20;59.80;;;;;;5096135;28;20055;-85
2023/03/20 06:56:07;;;;;;;9.10;6.07;;;10.20;59.80;;;;;;5095603;28;20024;-78
2023/03/20 06:58:32;;;;;;;7.88;6.40;;;10.30;59.80;;;;;;5096692;28;20020;-72
2023/03/20 07:00:58;;;;;;;10.75;6.88;;;10.30;59.80;;;;;;5096917;28;20378;-72
2023/03/20 07:03:23;;;;;;;8.95;6.15;;;10.30;59.80;;;;;;5095168;28;20031;-77
2023/03/20 07:05:49;;;;;;;7.75;6.28;;;10.40;60.00;;;;;;5096261;28;20036;-82
2023/03/20 07:08:15;;;;;;;8.45;6.03;;;10.30;60.00;;;;;;5096205;28;20543;-78
2023/03/20 07:10:41;;;;;;;8.00;6.05;;;10.30;60.00;;;;;;5096448;28;20586;-78
2023/03/20 07:13:08;;;;;;;8.38;5.95;;;10.30;60.00;;;;;;5094499;28;20044;-75
2023/03/20 07:15:33;;;;;;;8.57;6.00;;;10.30;60.00;;;;;;5095588;28;20492;-79
2023/03/20 07:17:59;;;;;;;8.18;5.88;;;10.20;59.90;;;;;;5093107;28;20111;-79
2023/03/20 07:20:25;;;;;;;9.25;5.95;;;10.30;60.00;;;;;;5096087;28;20034;-77
2023/03/20 07:22:51;;;;;;;6.30;4.90;;;10.20;60.00;;;;;;5094758;28;20031;-76
2023/03/20 07:25:17;;;;;;;7.68;4.95;;;10.30;60.00;;;;;;5095870;28;20024;-78
2023/03/20 07:27:49;;;;;;;7.57;5.72;;;10.30;60.00;;;;;;5096055;28;20039;-76
2023/03/20 07:30:17;;;;;;;6.53;5.07;;;10.20;60.00;;;;;;5096066;28;20039;-80
2023/03/20 07:32:44;;;;;;;6.75;5.10;;;10.20;60.00;;;;;;5093853;28;20089;-78
2023/03/20 07:35:10;;;;;;;7.28;5.30;;;10.20;60.00;;;;;;5097653;28;20134;-78
2023/03/20 07:37:36;;;;;;;7.68;5.50;;;10.20;60.00;;;;;;5097780;28;20385;-77
2023/03/20 07:40:02;;;;;;;6.97;5.50;;;10.20;60.00;;;;;;5097447;28;20038;-77
2023/03/20 07:42:28;;;;;;;7.10;5.47;;;10.20;60.00;;;;;;5097891;28;20035;-77
2023/03/20 07:44:54;;;;;;;7.88;5.45;;;10.20;60.00;;;;;;5116076;28;20050;-77
2023/03/20 07:47:19;;;;;;;7.53;5.28;;;10.20;60.00;;;;;;5097813;28;20071;-79
2023/03/20 07:49:45;;;;;;;8.50;5.85;;;10.30;60.00;;;;;;5115841;28;20465;-77
2023/03/20 07:52:11;;;;;;;8.82;5.97;;;10.20;60.00;;;;;;5116103;28;20423;-78
2023/03/20 07:54:37;;;;;;;9.48;6.13;;;10.30;60.10;;;;;;5097281;28;20155;-78
2023/03/20 07:57:04;;;;;;;9.07;6.05;;;10.20;60.00;;;;;;5097602;28;20019;-76
2023/03/20 07:59:30;;;;;;;8.70;5.97;;;10.30;60.00;;;;;;5115978;28;20035;-76
2023/03/20 08:01:56;;;;;;;6.65;5.32;;;10.30;60.10;;;;;;5097343;28;20077;-77
2023/03/20 08:04:22;;;;;;;7.32;6.03;;;10.30;60.00;;;;;;5115824;28;20027;-77
2023/03/20 08:06:48;;;;;;;8.77;6.30;;;10.30;60.00;;;;;;5116058;28;20525;-77
2023/03/20 08:09:14;;;;;;;7.85;5.93;;;10.40;60.00;;;;;;5097316;28;20100;-77
2023/03/20 08:11:39;;;;;;;8.25;6.03;;;10.40;60.60;;;;;;5097321;28;20435;-77
2023/03/20 08:14:05;;;;;;;9.48;6.38;;;10.40;60.00;;;;;;5115343;28;20031;-77
2023/03/20 08:16:31;;;;;;;7.68;6.10;;;10.40;60.00;;;;;;5115435;28;20449;-76
2023/03/20 08:19:00;;;;;;;7.75;6.22;;;10.40;60.00;;;;;;5115544;28;20032;-77
2023/03/20 08:21:27;;;;;;;8.80;6.50;;;10.50;60.00;;;;;;5115487;28;20114;-78
2023/03/20 08:23:53;;;;;;;7.57;6.30;;;10.50;60.00;;;;;;5115054;28;20532;-77
2023/03/20 08:26:19;;;;;;;10.18;6.47;;;10.50;60.00;;;;;;5080267;28;20051;-77
2023/03/20 08:28:44;;;;;;;7.97;6.10;;;10.50;60.00;;;;;;5115150;28;20024;-77
2023/03/20 08:31:10;;;;;;;7.85;6.20;;;10.60;59.90;;;;;;5114888;28;20073;-76
2023/03/20 08:33:36;;;;;;;8.20;5.95;;;10.60;59.90;;;;;;5095814;28;20027;-78
2023/03/20 08:36:02;;;;;;;8.57;6.50;;;10.60;59.80;;;;;;5076435;28;20070;-76
2023/03/20 08:38:27;;;;;;;7.15;5.88;;;10.70;59.80;;;;;;5076095;28;20077;-76
2023/03/20 08:40:53;;;;;;;7.80;5.70;;;10.70;59.80;;;;;;5095082;28;20103;-75
2023/03/20 08:43:19;;;;;;;7.03;5.60;;;10.70;59.70;;;;;;5094585;28;20024;-75
2023/03/20 08:45:45;;;;;;;7.55;5.60;;;10.70;59.60;;;;;;5094500;28;20043;-76
2023/03/20 08:48:10;;;;;;;7.18;5.40;;;10.80;59.70;;;;;;5094418;28;20074;-75
2023/03/20 08:50:37;;;;;;;7.28;5.18;;;10.80;59.70;;;;;;5094718;28;20042;-74
2023/03/20 08:53:03;;;;;;;7.57;5.72;;;10.80;59.60;;;;;;5075877;28;20028;-76
2023/03/20 08:55:29;;;;;;;6.95;5.30;;;10.80;59.60;;;;;;5094413;28;20089;-76
2023/03/20 08:57:56;;;;;;;5.95;4.97;;;10.80;59.50;;;;;;5075987;28;20025;-75
2023/03/20 09:00:22;;;;;;;8.60;5.22;;;10.80;59.50;;;;;;5076146;28;20489;-76
2023/03/20 09:02:49;;;;;;;8.65;5.18;;;10.80;59.60;;;;;;5076220;28;20032;-76
2023/03/20 09:05:15;;;;;;;7.78;5.43;;;10.80;59.50;;;;;;5076008;28;20377;-76
2023/03/20 09:07:41;;;;;;;6.18;4.95;;;10.80;59.50;;;;;;5093651;28;20035;-74
2023/03/20 09:10:08;;;;;;;5.82;4.88;;;10.80;59.50;;;;;;5094435;28;20036;-75
2023/03/20 09:12:34;;;;;;;7.10;4.65;;;10.90;59.50;;;;;;5094003;28;20107;-76
2023/03/20 09:15:00;;;;;;;6.70;4.85;;;10.90;59.50;;;;;;5094108;28;20150;-77
2023/03/20 09:17:26;;;;;;;5.60;4.70;;;10.90;59.50;;;;;;5093904;28;20446;-76
2023/03/20 09:19:52;;;;;;;6.50;4.80;;;10.90;59.40;;;;;;5075918;28;20020;-76
2023/03/20 09:22:18;;;;;;;5.35;4.70;;;11.00;59.50;;;;;;5075525;28;20077;-75
2023/03/20 09:24:44;;;;;;;6.50;4.60;;;11.00;59.40;;;;;;5094105;28;20032;-77
2023/03/20 09:27:14;;;;;;;6.38;4.88;;;11.10;59.40;;;;;;5076089;28;20036;-75
2023/03/20 09:29:41;;;;;;;5.38;4.57;;;11.10;59.40;;;;;;5093843;28;20107;-76
2023/03/20 09:32:07;;;;;;;5.40;4.65;;;11.20;59.30;;;;;;5093618;28;20028;-76
2023/03/20 09:34:33;;;;;;;5.85;4.90;;;11.30;59.30;;;;;;5093410;28;20055;-76
2023/03/20 09:37:01;;;;;;;5.55;4.43;;;11.30;59.10;;;;;;5093600;28;20374;-76
2023/03/20 09:39:26;;;;;;;5.97;4.50;;;11.30;59.00;;;;;;5093636;28;20111;-75
2023/03/20 09:41:52;;;;;;;5.70;4.32;;;11.30;59.00;;;;;;5075548;28;20103;-76
2023/03/20 09:44:47;;;;;;;6.57;4.88;;;11.40;59.00;;;;;;5075082;28;20042;-76
2023/03/20 09:47:47;;;;;;;6.80;4.75;;;11.40;58.90;;;;;;5093096;28;20618;-76
2023/03/20 09:50:43;;;;;;;5.32;3.95;;;11.40;58.80;;;;;;5054225;28;20060;-75
2023/03/20 09:53:33;;;;;;;6.03;4.07;;;11.40;58.80;;;;;;5075296;28;20028;-76
2023/03/20 09:55:59;;;;;;;5.30;4.15;;;11.50;58.80;;;;;;5075373;28;20115;-75
2023/03/20 09:58:32;;;;;;;4.72;4.03;;;11.50;58.70;;;;;;5075398;28;20162;-76
2023/03/20 10:01:00;;;;;;;4.75;4.05;;;11.50;58.70;;;;;;5075522;28;20038;-75
2023/03/20 10:03:42;;;;;;;4.60;3.92;;;11.50;58.70;;;;;;5075062;28;20078;-76
2023/03/20 10:06:14;;;;;;;5.82;4.10;;;11.50;58.60;;;;;;5093768;28;20032;-75
2023/03/20 10:08:41;;;;;;;5.55;4.32;;;11.50;58.60;;;;;;5075103;28;20035;-75
2023/03/20 10:11:28;;;;;;;6.28;4.20;;;11.50;58.60;;;;;;5093251;28;20090;-76
2023/03/20 10:14:01;;;;;;;6.50;4.15;;;11.50;58.60;;;;;;5093793;28;20115;-75
2023/03/20 10:17:11;;;;;;;6.78;4.05;;;11.60;58.70;;;;;;5075208;28;20113;-76
2023/03/20 10:19:57;;;;;;;5.65;3.88;;;11.60;58.60;;;;;;5084554;28;20108;-76
2023/03/20 10:22:35;;;;;;;4.50;3.83;;;11.60;58.50;;;;;;5097312;28;20031;-76
2023/03/20 10:25:14;;;;;;;4.45;3.80;;;11.60;58.50;;;;;;5096912;28;20458;-75
2023/03/20 10:27:48;;;;;;;4.70;3.67;;;11.60;58.50;;;;;;5079098;28;20465;-77
2023/03/20 10:30:56;;;;;;;6.45;3.90;;;11.60;58.40;;;;;;5079617;28;20058;-76
2023/03/20 10:33:39;;;;;;;5.13;4.25;;;11.60;58.40;;;;;;5079343;28;20036;-75
2023/03/20 10:36:37;;;;;;;6.10;3.67;;;11.60;58.30;;;;;;5097332;28;20048;-76
2023/03/20 10:39:29;;;;;;;4.47;3.50;;;11.60;58.30;;;;;;5096568;28;20032;-76
2023/03/20 10:42:00;;;;;;;3.85;3.45;;;11.60;58.30;;;;;;5096648;28;20040;-76
2023/03/20 10:45:08;;;;;;;4.22;3.10;;;11.60;58.30;;;;;;5097062;28;20135;-75
2023/03/20 10:47:37;;;;;;;3.97;3.30;;;11.60;58.20;;;;;;5096527;28;20035;-75
2023/03/20 10:50:32;;;;;;;5.63;3.50;;;11.60;58.20;;;;;;5096523;28;20118;-75
2023/03/20 10:52:59;;;;;;;3.70;3.30;;;11.60;58.20;;;;;;5096712;28;20032;-76
2023/03/20 10:55:30;;;;;;;4.22;3.45;;;11.60;58.10;;;;;;5078684;28;20118;-76
2023/03/20 10:58:12;;;;;;;4.10;3.45;;;11.60;58.10;;;;;;5078315;28;20024;-76
2023/03/20 11:00:37;;;;;;;3.97;3.30;;;11.60;58.10;;;;;;5096401;28;20028;-76
2023/03/20 11:03:05;;;;;;;4.10;3.33;;;11.70;58.10;;;;;;5096899;28;20454;-75
2023/03/20 11:05:35;;;;;;;3.45;3.15;;;11.70;58.10;;;;;;5078231;28;20040;-75
2023/03/20 11:08:05;;;;;;;3.95;3.22;;;11.60;57.90;;;;;;5078122;28;20032;-75
2023/03/20 11:10:33;;;;;;;6.13;3.30;;;11.70;58.00;;;;;;5096285;28;20385;-76
2023/03/20 11:13:15;;;;;;;4.00;2.97;;;11.70;57.90;;;;;;5078715;28;20020;-76
2023/03/20 11:15:41;;;;;;;3.88;3.20;;;11.70;57.80;;;;;;5096049;28;20024;-76
2023/03/20 11:18:14;;;;;;;3.10;2.80;;;11.70;57.80;;;;;;5078055;28;20028;-77
2023/03/20 11:20:49;;;;;;;5.25;3.28;;;11.70;57.70;;;;;;5077926;28;20024;-76
2023/03/20 11:23:18;;;;;;;3.05;2.75;;;11.80;57.70;;;;;;5096377;28;20024;-75
2023/03/20 11:25:58;;;;;;;3.70;3.28;;;11.80;57.60;;;;;;5096217;28;20047;-76
2023/03/20 11:28:34;;;;;;;3.40;3.10;;;11.80;57.40;;;;;;5077878;28;20429;-75
2023/03/20 11:31:11;;;;;;;4.65;2.90;;;11.80;57.40;;;;;;5077229;28;20381;-76
2023/03/20 11:33:40;;;;;;;3.55;2.92;;;11.80;57.40;;;;;;5095845;28;20454;-76
2023/03/20 11:36:33;;;;;;;3.65;2.78;;;11.80;57.30;;;;;;5096011;28;20032;-74
2023/03/20 11:39:14;;;;;;;2.97;2.75;;;11.80;57.00;;;;;;5092056;28;20036;-77
2023/03/20 11:41:49;;;;;;;3.30;2.97;;;11.90;57.10;;;;;;5077236;28;20020;-76
2023/03/20 11:44:26;;;;;;;3.13;2.70;;;11.90;57.10;;;;;;5077439;28;20039;-75
2023/03/20 11:47:05;;;;;;;3.20;2.90;;;11.90;57.00;;;;;;5095762;28;20022;-75
2023/03/20 11:49:44;;;;;;;3.15;2.78;;;11.90;56.90;;;;;;5077509;28;20028;-76
2023/03/20 11:52:16;;;;;;;4.38;2.80;;;11.90;57.10;;;;;;5077227;28;20028;-76
2023/03/20 11:54:48;;;;;;;4.22;2.88;;;11.90;56.80;;;;;;5077295;28;20023;-76
2023/03/20 11:57:34;;;;;;;4.03;2.95;;;11.90;56.80;;;;;;5077496;28;20028;-76
2023/03/20 12:00:03;;;;;;;3.03;2.47;;;12.00;56.50;;;;;;5095335;28;20024;-75
2023/03/20 12:02:30;;;;;;;3.60;3.10;;;12.00;56.60;;;;;;5095014;28;20032;-76
2023/03/20 12:04:59;;;;;;;3.33;3.00;;;12.00;56.50;;;;;;5076724;28;20032;-76
2023/03/20 12:07:35;;;;;;;2.97;2.67;;;12.00;56.50;;;;;;5077299;28;20338;-75
2023/03/20 12:10:12;;;;;;;4.13;2.92;;;12.00;56.40;;;;;;5077076;28;20026;-75
2023/03/20 12:13:05;;;;;;;3.35;2.70;;;12.00;56.30;;;;;;5076708;28;20035;-76
2023/03/20 12:15:35;;;;;;;3.15;2.60;;;12.00;56.10;;;;;;5095380;28;20036;-75
2023/03/20 12:18:15;;;;;;;2.90;2.60;;;12.10;56.30;;;;;;5076889;28;20028;-75
2023/03/20 12:20:45;;;;;;;2.50;2.30;;;12.00;56.10;;;;;;5076638;28;20028;-76
2023/03/20 12:23:17;;;;;;;3.13;2.60;;;12.10;56.10;;;;;;5094562;28;20020;-76
2023/03/20 12:26:33;;;;;;;2.85;2.63;;;12.10;56.10;;;;;;5095166;28;20064;-75
2023/03/20 12:29:06;;;;;;;2.85;2.33;;;12.10;55.80;;;;;;5051471;28;20096;-76
2023/03/20 12:31:46;;;;;;;5.28;2.55;;;12.10;56.00;;;;;;5076396;28;20028;-75
2023/03/20 12:34:22;;;;;;;2.83;2.58;;;12.10;55.90;;;;;;5094878;28;20048;-76
2023/03/20 12:36:51;;;;;;;3.10;2.50;;;12.20;56.00;;;;;;5076613;28;20089;-75
2023/03/20 12:39:23;;;;;;;3.67;2.78;;;12.20;55.90;;;;;;5094581;28;20031;-76
2023/03/20 12:42:27;;;;;;;3.10;2.58;;;12.30;55.90;;;;;;5075948;28;20107;-76
2023/03/20 12:45:20;;;;;;;3.25;2.45;;;12.30;55.80;;;;;;5094097;28;20032;-76
2023/03/20 12:48:30;;;;;;;3.50;2.60;;;12.40;55.80;;;;;;5079316;28;20094;-76
2023/03/20 12:51:16;;;;;;;2.95;2.58;;;12.40;55.60;;;;;;5094768;28;20476;-76
2023/03/20 12:54:02;;;;;;;3.67;2.78;;;12.40;55.60;;;;;;5094442;28;20027;-76
2023/03/20 12:56:53;;;;;;;3.13;2.83;;;12.50;55.60;;;;;;5094687;28;20062;-78
2023/03/20 12:59:25;;;;;;;3.03;2.60;;;12.50;55.50;;;;;;5078691;28;20023;-76
2023/03/20 13:01:56;;;;;;;4.78;3.03;;;12.60;55.50;;;;;;5094392;28;20081;-76
2023/03/20 13:04:30;;;;;;;3.42;3.10;;;12.60;55.50;;;;;;5093854;28;20032;-76
2023/03/20 13:07:00;;;;;;;;;;;12.60;55.30;;;;;;5076089;28;20028;-77
2023/03/20 13:09:47;;;;;;;3.58;2.83;;;12.70;55.00;;;;;;5110020;28;20337;-75
2023/03/20 13:12:54;;;;;;;3.38;2.65;;;12.80;55.30;;;;;;5093934;28;20035;-76